Time;durP1;ratioP1;P1;durP2;ratioP2;P2;SDS_P1;SDS_P2;PMS_P1;PMS_P2;Temp;Humidity;BMP_temperature;BMP_pressure;BME280_temperature;BME280_humidity;BME280_pressure;Samples;Min_cycle;Max_cycle;Signal;HPM_P1;HPM_P2
2022/09/29 00:00:20;;;;;;;9.10;7.50;;;;;;;6.89;100.00;99203.69;687142;28;1226;-64
2022/09/29 00:00:40;;;;;;;9.77;7.78;;;;;;;6.88;100.00;99210.66;687131;28;4550;-66
2022/09/29 00:01:01;;;;;;;14.17;7.80;;;;;;;6.87;100.00;99206.31;690020;28;1243;-64
2022/09/29 00:01:22;;;;;;;9.63;7.50;;;;;;;6.90;100.00;99208.03;689088;28;3012;-64
2022/09/29 00:01:42;;;;;;;9.32;7.45;;;;;;;6.85;100.00;99202.88;690678;28;1318;-63
2022/09/29 00:02:02;;;;;;;8.55;7.35;;;;;;;6.81;100.00;99212.47;691591;28;2764;-65
2022/09/29 00:02:23;;;;;;;9.43;7.33;;;;;;;6.78;100.00;99204.72;692697;28;1100;-64
2022/09/29 00:02:43;;;;;;;8.40;7.22;;;;;;;6.77;100.00;99207.31;691834;28;1235;-64
2022/09/29 00:03:04;;;;;;;9.00;7.50;;;;;;;6.75;100.00;99209.91;692578;28;1132;-64
2022/09/29 00:03:25;;;;;;;10.10;7.70;;;;;;;6.74;100.00;99213.41;691191;28;2664;-65
2022/09/29 00:03:45;;;;;;;9.82;7.45;;;;;;;6.75;100.00;99212.53;691248;28;4572;-64
2022/09/29 00:04:05;;;;;;;10.07;7.30;;;;;;;6.75;100.00;99204.72;692437;28;1290;-64
2022/09/29 00:04:28;;;;;;;9.80;7.67;;;;;;;6.74;100.00;99208.22;692345;28;1135;-64
2022/09/29 00:04:49;;;;;;;10.10;7.80;;;;;;;6.72;100.00;99215.16;690840;28;2088;-64
2022/09/29 00:05:09;;;;;;;10.20;7.87;;;;;;;6.68;100.00;99210.03;688841;28;1322;-65
2022/09/29 00:05:29;;;;;;;9.07;7.67;;;;;;;6.66;100.00;99210.06;690314;28;1324;-64
2022/09/29 00:05:52;;;;;;;9.05;7.68;;;;;;;6.69;100.00;99209.13;690230;28;1287;-64
2022/09/29 00:06:15;;;;;;;12.10;7.63;;;;;;;6.73;100.00;99211.69;686591;28;1390;-65
2022/09/29 00:06:36;;;;;;;9.02;7.70;;;;;;;6.76;100.00;99209.06;686888;28;1243;-65
2022/09/29 00:06:56;;;;;;;9.60;7.67;;;;;;;6.76;100.00;99206.44;687726;28;4243;-65
2022/09/29 00:07:16;;;;;;;9.98;7.60;;;;;;;6.77;100.00;99213.38;689246;28;2678;-65
2022/09/29 00:07:37;;;;;;;9.20;7.27;;;;;;;6.78;100.00;99209.91;690391;28;1258;-65
2022/09/29 00:07:57;;;;;;;8.57;7.37;;;;;;;6.78;100.00;99212.50;690338;28;1244;-64
2022/09/29 00:08:19;;;;;;;8.95;7.38;;;;;;;6.77;100.00;99208.19;689490;28;1135;-64
2022/09/29 00:08:40;;;;;;;9.38;7.65;;;;;;;6.77;100.00;99208.19;684304;28;2088;-65
2022/09/29 00:09:00;;;;;;;8.30;7.40;;;;;;;6.74;100.00;99208.22;684613;28;1351;-66
2022/09/29 00:09:21;;;;;;;8.73;7.20;;;;;;;6.75;100.00;99206.47;685666;28;1267;-65
2022/09/29 00:09:41;;;;;;;8.50;6.97;;;;;;;6.76;100.00;99203.00;684174;28;4311;-64
2022/09/29 00:10:02;;;;;;;8.53;6.87;;;;;;;6.79;100.00;99209.00;684921;28;1089;-65
2022/09/29 00:10:22;;;;;;;9.32;7.13;;;;;;;6.80;100.00;99202.94;687289;28;1169;-65
2022/09/29 00:10:43;;;;;;;8.67;6.90;;;;;;;6.81;100.00;99208.97;689867;28;1235;-65
2022/09/29 00:11:13;;;;;;;9.55;7.22;;;;;;;6.82;100.00;99206.38;687759;28;1231;-64
2022/09/29 00:11:33;;;;;;;9.48;7.45;;;;;;;6.85;100.00;99212.41;687480;28;1433;-64
2022/09/29 00:11:54;;;;;;;9.00;7.30;;;;;;;6.85;100.00;99209.81;687845;28;1406;-65
2022/09/29 00:12:15;;;;;;;9.30;7.40;;;;;;;6.84;100.00;99208.97;687323;28;1358;-64
2022/09/29 00:12:35;;;;;;;10.20;7.47;;;;;;;6.80;100.00;99213.31;687263;28;1333;-65
2022/09/29 00:12:56;;;;;;;9.90;7.18;;;;;;;6.76;100.00;99206.44;686545;28;4270;-65
2022/09/29 00:13:17;;;;;;;8.43;7.00;;;;;;;6.73;100.00;99206.50;687372;28;1111;-65
2022/09/29 00:13:38;;;;;;;9.73;7.07;;;;;;;6.72;100.00;99209.13;687201;28;2008;-65
2022/09/29 00:13:58;;;;;;;8.70;7.23;;;;;;;6.73;100.00;99210.81;684857;28;1109;-64
2022/09/29 00:14:18;;;;;;;8.40;7.35;;;;;;;6.72;100.00;99212.56;684042;28;2670;-64
2022/09/29 00:14:39;;;;;;;8.93;7.20;;;;;;;6.73;100.00;99216.88;683157;28;1268;-64
2022/09/29 00:14:59;;;;;;;8.55;7.45;;;;;;;6.75;100.00;99202.13;681518;28;1347;-64
2022/09/29 00:15:20;;;;;;;8.30;7.50;;;;;;;6.81;100.00;99208.97;681669;28;1154;-65
2022/09/29 00:15:41;;;;;;;8.65;7.25;;;;;;;6.82;100.00;99205.50;683291;28;4316;-64
2022/09/29 00:16:03;;;;;;;9.23;7.28;;;;;;;6.80;100.00;99202.94;689025;28;1275;-65
2022/09/29 00:16:23;;;;;;;8.38;7.00;;;;;;;6.78;100.00;99214.22;685735;28;3272;-65
2022/09/29 00:16:45;;;;;;;8.73;7.20;;;;;;;6.75;100.00;99215.13;686610;28;1062;-64
2022/09/29 00:17:05;;;;;;;9.23;7.28;;;;;;;6.75;100.00;99209.91;689317;28;2704;-64
2022/09/29 00:17:25;;;;;;;8.70;7.20;;;;;;;6.75;100.00;99214.25;689150;28;1080;-64
2022/09/29 00:17:46;;;;;;;7.93;6.75;;;;;;;6.74;100.00;99213.41;687827;28;1304;-65
2022/09/29 00:18:07;;;;;;;8.03;7.03;;;;;;;6.73;100.00;99211.69;689850;28;1259;-64
2022/09/29 00:18:29;;;;;;;8.60;7.47;;;;;;;6.71;100.00;99212.59;690168;28;1144;-65
2022/09/29 00:18:53;;;;;;;8.57;7.13;;;;;;;6.71;100.00;99213.44;688989;28;4333;-65
2022/09/29 00:19:14;;;;;;;8.57;7.30;;;;;;;6.71;100.00;99205.66;690737;28;1337;-65
2022/09/29 00:19:34;;;;;;;8.38;6.90;;;;;;;6.74;100.00;99213.41;691699;28;1314;-64
2022/09/29 00:19:55;;;;;;;8.30;7.27;;;;;;;6.73;100.00;99216.00;690983;28;2739;-64
2022/09/29 00:20:15;;;;;;;8.43;7.32;;;;;;;6.73;100.00;99211.69;691622;28;1420;-64
2022/09/29 00:20:37;;;;;;;8.27;7.20;;;;;;;6.73;100.00;99209.09;692090;28;1223;-65
2022/09/29 00:21:00;;;;;;;8.27;6.88;;;;;;;6.75;100.00;99207.31;692548;28;1159;-65
2022/09/29 00:21:20;;;;;;;8.95;7.45;;;;;;;6.76;100.00;99211.66;688923;28;1195;-64
2022/09/29 00:21:41;;;;;;;8.75;7.43;;;;;;;6.75;100.00;99209.91;686085;28;4491;-65
2022/09/29 00:22:01;;;;;;;8.48;7.13;;;;;;;6.74;100.00;99208.22;686956;28;1299;-64
2022/09/29 00:22:21;;;;;;;8.27;6.93;;;;;;;6.74;100.00;99208.22;687321;28;1164;-64
2022/09/29 00:22:42;;;;;;;8.20;6.90;;;;;;;6.76;100.00;99195.22;687219;28;1440;-65
2022/09/29 00:23:02;;;;;;;9.40;7.07;;;;;;;6.77;100.00;99208.19;687726;28;1458;-64
2022/09/29 00:23:23;;;;;;;9.77;6.87;;;;;;;6.79;100.00;99200.38;689791;28;1092;-64
2022/09/29 00:23:44;;;;;;;9.32;7.15;;;;;;;6.80;100.00;99202.09;690625;28;1259;-64
2022/09/29 00:24:05;;;;;;;8.45;7.22;;;;;;;6.78;100.00;99199.50;688891;28;1358;-66
2022/09/29 00:24:25;;;;;;;9.30;7.20;;;;;;;6.77;100.00;99200.38;688959;28;2685;-65
2022/09/29 00:24:47;;;;;;;9.77;6.88;;;;;;;6.77;100.00;99197.78;688335;28;4339;-65
2022/09/29 00:25:07;;;;;;;10.90;7.00;;;;;;;6.78;100.00;99201.22;689429;28;1436;-65
2022/09/29 00:25:28;;;;;;;9.50;6.80;;;;;;;6.82;100.00;99206.38;689903;28;1275;-64
2022/09/29 00:25:58;;;;;;;9.13;7.13;;;;;;;6.78;100.00;99202.13;688359;28;1224;-64
2022/09/29 00:26:21;;;;;;;9.70;7.10;;;;;;;6.77;100.00;99202.09;689042;28;1275;-65
2022/09/29 00:26:43;;;;;;;9.00;7.00;;;;;;;6.76;100.00;99200.41;688779;28;1243;-64
2022/09/29 00:27:04;;;;;;;8.63;7.20;;;;;;;6.70;100.00;99198.75;688831;28;1514;-65
2022/09/29 00:27:24;;;;;;;8.77;7.05;;;;;;;6.67;100.00;99198.75;689808;28;3018;-64
2022/09/29 00:27:45;;;;;;;9.57;7.00;;;;;;;6.62;100.00;99201.44;689548;28;4469;-65
2022/09/29 00:28:05;;;;;;;10.18;7.07;;;;;;;6.62;100.00;99201.44;687554;28;1310;-65
2022/09/29 00:28:26;;;;;;;8.77;7.17;;;;;;;6.59;100.00;99198.88;687386;28;1171;-64
2022/09/29 00:28:57;;;;;;;8.77;7.03;;;;;;;6.58;100.00;99191.97;687554;28;1049;-65
2022/09/29 00:29:17;;;;;;;10.00;7.43;;;;;;;6.57;100.00;99202.38;689956;28;1250;-65
2022/09/29 00:29:37;;;;;;;9.87;7.37;;;;;;;6.60;100.00;99199.72;688732;28;1294;-64
2022/09/29 00:29:58;;;;;;;9.50;7.30;;;;;;;6.62;100.00;99198.00;688511;28;1367;-64
2022/09/29 00:30:18;;;;;;;10.20;7.37;;;;;;;6.63;100.00;99197.97;689907;28;1358;-65
2022/09/29 00:30:38;;;;;;;9.40;7.13;;;;;;;6.64;100.00;99201.41;689311;28;4293;-65
2022/09/29 00:31:00;;;;;;;9.33;7.00;;;;;;;6.64;100.00;99201.41;690059;28;1427;-65
2022/09/29 00:31:21;;;;;;;9.82;7.13;;;;;;;6.67;100.00;99197.91;686244;28;3006;-64
2022/09/29 00:31:41;;;;;;;9.30;6.90;;;;;;;6.67;100.00;99200.50;687440;28;1176;-64
2022/09/29 00:32:01;;;;;;;9.68;7.00;;;;;;;6.63;100.00;99200.56;687108;28;1377;-65
2022/09/29 00:32:22;;;;;;;9.53;6.90;;;;;;;6.64;100.00;99198.81;686880;28;1133;-65
2022/09/29 00:32:42;;;;;;;9.17;6.70;;;;;;;6.65;100.00;99197.94;687610;28;1235;-65
2022/09/29 00:33:02;;;;;;;8.88;7.03;;;;;;;6.63;100.00;99199.69;687406;28;1319;-65
2022/09/29 00:33:23;;;;;;;8.73;6.90;;;;;;;6.63;100.00;99197.09;689833;28;1112;-64
2022/09/29 00:33:44;;;;;;;8.52;6.78;;;;;;;6.64;100.00;99201.41;688952;28;4608;-65
2022/09/29 00:34:04;;;;;;;9.85;7.25;;;;;;;6.62;100.00;99198.00;687460;28;1274;-65
2022/09/29 00:34:24;;;;;;;9.40;7.27;;;;;;;6.59;100.00;99200.59;687498;28;1158;-65
2022/09/29 00:34:45;;;;;;;10.10;7.20;;;;;;;6.56;100.00;99195.44;687649;28;1258;-65
2022/09/29 00:35:07;;;;;;;8.67;7.13;;;;;;;6.56;100.00;99196.31;687332;28;1266;-65
2022/09/29 00:35:27;;;;;;;9.45;7.28;;;;;;;6.56;100.00;99195.44;687416;28;1942;-65
2022/09/29 00:36:03;;;;;;;9.27;7.10;;;;;;;6.54;100.00;99194.63;687704;28;1274;-64
2022/09/29 00:36:24;;;;;;;8.18;6.97;;;;;;;6.54;100.00;99197.22;687329;28;1056;-65
2022/09/29 00:36:45;;;;;;;9.35;7.22;;;;;;;6.54;100.00;99197.22;686663;28;4547;-65
2022/09/29 00:37:06;;;;;;;9.68;7.13;;;;;;;6.52;100.00;99196.34;688042;28;2733;-65
2022/09/29 00:37:26;;;;;;;10.00;7.20;;;;;;;6.50;100.00;99198.97;688845;28;1285;-65
2022/09/29 00:37:46;;;;;;;9.57;7.15;;;;;;;6.51;100.00;99199.81;689831;28;1314;-65
2022/09/29 00:38:07;;;;;;;9.43;7.20;;;;;;;6.52;100.00;99199.84;687208;28;1550;-64
2022/09/29 00:38:28;;;;;;;8.60;6.80;;;;;;;6.53;100.00;99192.91;687871;28;1377;-65
2022/09/29 00:38:51;;;;;;;8.75;7.00;;;;;;;6.56;100.00;99200.63;689488;28;5109;-65
2022/09/29 00:39:12;;;;;;;8.02;6.82;;;;;;;6.59;100.00;99193.69;689796;28;1005;-65
2022/09/29 00:39:32;;;;;;;8.20;6.80;;;;;;;6.61;100.00;99197.09;689155;28;1370;-65
2022/09/29 00:39:53;;;;;;;8.57;6.70;;;;;;;6.59;100.00;99195.41;689629;28;5223;-64
2022/09/29 00:40:13;;;;;;;8.33;6.87;;;;;;;6.59;100.00;99193.69;692017;28;1230;-65
2022/09/29 00:40:33;;;;;;;8.43;6.83;;;;;;;6.59;100.00;99190.22;691536;28;2684;-65
2022/09/29 00:40:54;;;;;;;7.72;6.88;;;;;;;6.58;100.00;99201.50;690971;28;1468;-65
2022/09/29 00:41:24;;;;;;;8.43;6.70;;;;;;;6.56;100.00;99198.03;689805;28;1400;-65
2022/09/29 00:41:44;;;;;;;8.80;7.00;;;;;;;6.54;100.00;99199.81;689366;28;1297;-64
2022/09/29 00:42:05;;;;;;;8.98;7.03;;;;;;;6.57;100.00;99200.63;688693;28;1258;-65
2022/09/29 00:42:25;;;;;;;8.83;6.50;;;;;;;6.59;100.00;99198.00;689548;28;1564;-65
2022/09/29 00:42:45;;;;;;;9.97;6.60;;;;;;;6.61;100.00;99196.25;688955;28;4433;-64
2022/09/29 00:43:18;;;;;;;8.70;6.60;;;;;;;6.61;100.00;99201.44;688821;28;2544;-64
2022/09/29 00:43:50;;;;;;;8.25;6.70;;;;;;;6.59;100.00;99203.19;688263;28;1633;-65
2022/09/29 00:44:13;;;;;;;8.23;6.30;;;;;;;6.60;100.00;99197.97;689274;28;1111;-65
2022/09/29 00:45:12;;;;;;;8.27;6.57;;;;;;;6.54;100.00;99200.66;688904;28;1238;-65
2022/09/29 00:45:32;;;;;;;8.05;6.78;;;;;;;6.48;100.00;99200.75;689831;28;1255;-65
2022/09/29 00:45:54;;;;;;;8.43;7.13;;;;;;;6.50;100.00;99192.94;688845;28;4564;-64
2022/09/29 00:46:19;;;;;;;7.88;6.90;;;;;;;6.53;100.00;99198.09;689781;28;1445;-64
2022/09/29 00:46:46;;;;;;;9.18;6.60;;;;;;;6.59;100.00;99193.69;689798;28;1267;-65
2022/09/29 00:47:14;;;;;;;9.50;6.50;;;;;;;6.58;100.00;99197.16;689769;28;2555;-65
2022/09/29 00:47:36;;;;;;;9.30;6.72;;;;;;;6.53;100.00;99198.09;690167;28;1417;-65
2022/09/29 00:48:12;;;;;;;8.95;6.93;;;;;;;6.52;100.00;99194.63;689641;28;1320;-65
2022/09/29 00:48:33;;;;;;;9.13;6.88;;;;;;;6.51;100.00;99203.31;688035;28;1286;-65
2022/09/29 00:48:58;;;;;;;8.63;6.40;;;;;;;6.54;100.00;99192.03;688604;28;4567;-64
2022/09/29 00:49:21;;;;;;;7.55;6.35;;;;;;;6.54;100.00;99202.41;688449;28;1351;-65
2022/09/29 00:49:46;;;;;;;7.95;6.40;;;;;;;6.50;100.00;99198.13;688217;28;1293;-65
2022/09/29 00:50:16;;;;;;;7.82;6.50;;;;;;;6.46;100.00;99202.47;689056;28;1365;-65
2022/09/29 00:50:44;;;;;;;8.98;6.85;;;;;;;6.46;100.00;99199.88;689360;28;2787;-65
2022/09/29 00:51:05;;;;;;;8.90;6.78;;;;;;;6.46;100.00;99195.53;689054;28;1255;-65
2022/09/29 00:51:27;;;;;;;8.50;6.88;;;;;;;6.46;100.00;99195.53;689208;28;1076;-65
2022/09/29 00:52:00;;;;;;;9.07;6.65;;;;;;;6.48;100.00;99200.75;689083;28;4407;-65
2022/09/29 00:52:25;;;;;;;8.35;6.80;;;;;;;6.45;100.00;99204.22;689371;28;1368;-64
2022/09/29 00:53:00;;;;;;;8.10;6.58;;;;;;;6.44;100.00;99199.06;688962;28;1234;-65
2022/09/29 00:53:22;;;;;;;8.00;6.57;;;;;;;6.43;100.00;99200.78;688431;28;1218;-65
2022/09/29 00:53:43;;;;;;;9.55;6.50;;;;;;;6.44;100.00;99204.25;688459;28;1379;-64
2022/09/29 00:54:05;;;;;;;8.98;6.47;;;;;;;6.43;100.00;99203.38;687193;28;1283;-65
2022/09/29 00:54:30;;;;;;;8.55;6.60;;;;;;;6.46;100.00;99203.34;689062;28;2746;-65
2022/09/29 00:55:03;;;;;;;7.53;6.47;;;;;;;6.41;100.00;99207.75;689325;28;4680;-65
2022/09/29 00:55:35;;;;;;;8.27;6.40;;;;;;;6.39;100.00;99200.84;689417;28;1914;-64
2022/09/29 00:56:01;;;;;;;8.07;6.72;;;;;;;6.30;100.00;99201.81;689734;28;1591;-65
2022/09/29 00:56:23;;;;;;;8.73;7.07;;;;;;;6.28;100.00;99206.16;689085;28;1131;-65
2022/09/29 00:56:44;;;;;;;8.70;7.10;;;;;;;6.29;100.00;99206.13;688469;28;1275;-65
2022/09/29 00:57:08;;;;;;;8.00;6.80;;;;;;;6.26;100.00;99211.34;688981;28;1327;-65
2022/09/29 00:57:32;;;;;;;9.02;7.03;;;;;;;6.28;100.00;99209.59;689186;28;1188;-64
2022/09/29 00:58:11;;;;;;;8.60;6.95;;;;;;;6.30;100.00;99204.41;687920;28;4616;-65
2022/09/29 00:58:38;;;;;;;8.15;6.65;;;;;;;6.34;100.00;99203.50;684102;28;1235;-65
2022/09/29 00:59:04;;;;;;;7.30;6.28;;;;;;;6.39;100.00;99206.88;684473;28;1187;-65
2022/09/29 00:59:34;;;;;;;7.65;6.85;;;;;;;6.39;100.00;99209.47;681433;28;1309;-65
2022/09/29 01:00:10;;;;;;;9.00;7.10;;;;;;;6.32;100.00;99204.38;681970;29;1252;-64
2022/09/29 01:00:31;;;;;;;8.80;6.70;;;;;;;6.28;100.00;99199.22;685674;28;1434;-65
2022/09/29 01:00:53;;;;;;;9.90;6.90;;;;;;;6.23;100.00;99197.53;686497;28;4398;-65
2022/09/29 01:01:13;;;;;;;8.90;7.03;;;;;;;6.20;100.00;99197.56;687666;28;2804;-65
2022/09/29 01:01:34;;;;;;;8.45;6.80;;;;;;;6.18;100.00;99202.78;688940;28;1385;-65
2022/09/29 01:01:55;;;;;;;8.32;7.00;;;;;;;6.17;100.00;99202.81;689949;28;1390;-64
2022/09/29 01:02:18;;;;;;;8.57;7.20;;;;;;;6.17;100.00;99197.63;689708;28;1334;-65
2022/09/29 01:02:51;;;;;;;8.30;6.75;;;;;;;6.24;100.00;99201.88;690207;28;1164;-65
2022/09/29 01:03:16;;;;;;;9.05;7.15;;;;;;;6.35;100.00;99205.19;687023;28;1358;-64
2022/09/29 01:03:42;;;;;;;10.68;6.88;;;;;;;6.43;100.00;99202.53;687616;28;1210;-64
2022/09/29 01:04:07;;;;;;;9.85;6.75;;;;;;;6.39;100.00;99206.88;688647;28;4790;-65
2022/09/29 01:04:28;;;;;;;8.77;6.55;;;;;;;6.33;100.00;99206.97;688671;28;1366;-69
2022/09/29 01:04:52;;;;;;;9.35;7.10;;;;;;;6.28;100.00;99204.41;687335;28;1378;-64
2022/09/29 01:05:18;;;;;;;9.63;6.93;;;;;;;6.29;100.00;99203.53;686402;28;1391;-64
2022/09/29 01:05:46;;;;;;;9.32;7.03;;;;;;;6.27;100.00;99207.00;687249;28;1217;-65
2022/09/29 01:06:15;;;;;;;8.43;7.03;;;;;;;6.29;100.00;99205.28;683865;28;1293;-65
2022/09/29 01:06:45;;;;;;;8.02;6.85;;;;;;;6.32;100.00;99206.97;684194;28;1479;-65
2022/09/29 01:07:08;;;;;;;8.60;7.03;;;;;;;6.29;100.00;99200.94;683731;28;4941;-65
2022/09/29 01:07:28;;;;;;;7.88;6.57;;;;;;;6.29;100.00;99207.88;684465;28;3213;-64
2022/09/29 01:07:50;;;;;;;9.52;6.80;;;;;;;6.30;100.00;99201.81;684542;28;1209;-64
2022/09/29 01:08:29;;;;;;;9.48;6.72;;;;;;;6.25;100.00;99203.59;683670;28;1383;-64
2022/09/29 01:08:56;;;;;;;8.00;6.97;;;;;;;6.18;100.00;99199.34;684486;28;1248;-65
2022/09/29 01:09:21;;;;;;;9.50;6.78;;;;;;;6.16;100.00;99201.09;686733;28;1212;-64
2022/09/29 01:09:42;;;;;;;8.18;6.93;;;;;;;6.16;100.00;99198.47;685812;28;4453;-65
2022/09/29 01:10:03;;;;;;;8.20;6.65;;;;;;;6.13;100.00;99202.84;686226;28;2718;-65
2022/09/29 01:10:24;;;;;;;9.18;6.90;;;;;;;6.14;100.00;99207.13;686768;28;1184;-65
2022/09/29 01:10:46;;;;;;;8.30;6.82;;;;;;;6.16;100.00;99204.53;686022;28;1409;-64
2022/09/29 01:11:10;;;;;;;8.48;6.70;;;;;;;6.18;100.00;99201.94;685980;28;1311;-66
2022/09/29 01:11:30;;;;;;;9.45;7.05;;;;;;;6.11;100.00;99201.97;687054;28;1270;-64
2022/09/29 01:11:53;;;;;;;8.40;6.80;;;;;;;6.11;100.00;99195.94;686096;28;1389;-65
2022/09/29 01:12:14;;;;;;;8.70;6.97;;;;;;;6.04;100.00;99204.66;687190;28;1339;-65
2022/09/29 01:12:34;;;;;;;8.47;6.73;;;;;;;5.97;100.00;99203.84;684333;28;3719;-65
2022/09/29 01:12:54;;;;;;;8.67;6.63;;;;;;;5.90;100.00;99208.22;683823;28;4550;-65
2022/09/29 01:13:16;;;;;;;9.33;6.67;;;;;;;5.89;100.00;99205.63;681528;28;1379;-64
2022/09/29 01:13:37;;;;;;;7.63;6.72;;;;;;;5.85;100.00;99203.94;679035;29;961;-64
2022/09/29 01:14:02;;;;;;;8.77;6.80;;;;;;;5.83;100.00;99206.56;679364;29;1168;-65
2022/09/29 01:14:24;;;;;;;8.00;6.43;;;;;;;5.84;100.00;99205.66;682285;28;2829;-65
2022/09/29 01:14:46;;;;;;;8.52;6.70;;;;;;;5.83;100.00;99203.97;684299;28;1307;-65
2022/09/29 01:15:06;;;;;;;9.93;7.00;;;;;;;5.85;100.00;99204.78;685762;28;1299;-65
2022/09/29 01:15:28;;;;;;;8.87;6.90;;;;;;;5.84;100.00;99204.81;686940;28;1975;-64
2022/09/29 01:15:49;;;;;;;9.07;6.78;;;;;;;5.80;100.00;99202.25;685845;28;4434;-64
2022/09/29 01:16:10;;;;;;;9.00;6.90;;;;;;;5.79;100.00;99195.34;685674;28;1381;-65
2022/09/29 01:16:32;;;;;;;9.07;7.38;;;;;;;5.81;100.00;99203.09;685926;28;1397;-65
2022/09/29 01:16:52;;;;;;;8.85;7.05;;;;;;;5.85;100.00;99198.75;686178;28;1306;-65
2022/09/29 01:17:13;;;;;;;9.33;6.83;;;;;;;5.89;100.00;99205.63;686778;28;2796;-64
2022/09/29 01:17:34;;;;;;;8.85;7.07;;;;;;;5.93;100.00;99203.00;687434;28;1342;-64
2022/09/29 01:17:54;;;;;;;8.15;6.97;;;;;;;5.98;100.00;99205.56;687313;28;1426;-64
2022/09/29 01:18:15;;;;;;;8.20;7.20;;;;;;;6.02;100.00;99196.88;687187;28;1480;-64
2022/09/29 01:18:36;;;;;;;7.83;6.90;;;;;;;6.04;100.00;99205.53;687329;28;1414;-65
2022/09/29 01:18:59;;;;;;;7.75;6.60;;;;;;;6.00;100.00;99196.03;689499;28;4404;-65
2022/09/29 01:19:50;;;;;;;8.40;6.63;;;;;;;5.97;100.00;99204.72;688536;28;1405;-64
2022/09/29 01:20:19;;;;;;;9.43;6.65;;;;;;;5.97;100.00;99207.31;688105;28;1221;-65
2022/09/29 01:20:50;;;;;;;9.18;7.05;;;;;;;5.96;100.00;99204.69;689016;28;1354;-65
2022/09/29 01:21:29;;;;;;;8.50;6.80;;;;;;;6.00;100.00;99203.81;688041;28;1243;-65
2022/09/29 01:21:53;;;;;;;9.07;6.72;;;;;;;6.03;100.00;99208.13;688645;28;4707;-64
2022/09/29 01:22:33;;;;;;;8.45;6.85;;;;;;;6.00;100.00;99209.03;689238;28;1099;-64
2022/09/29 01:23:05;;;;;;;8.20;6.63;;;;;;;5.90;100.00;99207.38;689176;28;1432;-64
2022/09/29 01:23:59;;;;;;;8.45;6.80;;;;;;;5.84;100.00;99202.22;688898;28;1057;-65
2022/09/29 01:24:53;;;;;;;8.20;6.95;;;;;;;5.78;100.00;99198.78;688856;28;1202;-65
2022/09/29 01:25:25;;;;;;;7.95;6.72;;;;;;;5.79;100.00;99203.13;687887;28;4797;-64
2022/09/29 01:26:24;;;;;;;9.40;6.80;;;;;;;5.74;100.00;99202.28;689467;28;1304;-65
2022/09/29 01:27:00;;;;;;;7.95;6.45;;;;;;;5.71;100.00;99206.66;678478;29;1466;-64
2022/09/29 01:27:44;;;;;;;9.27;6.78;;;;;;;5.71;100.00;99204.06;677781;29;2696;-65
2022/09/29 01:28:16;;;;;;;9.00;6.78;;;;;;;5.64;100.00;99211.03;678478;29;4795;-64
2022/09/29 01:28:39;;;;;;;9.00;7.10;;;;;;;5.63;100.00;99209.31;679492;29;1157;-65
2022/09/29 01:29:11;;;;;;;17.02;7.38;;;;;;;5.60;100.00;99204.16;680189;29;1466;-65
2022/09/29 01:29:49;;;;;;;9.95;7.32;;;;;;;5.55;100.00;99211.97;679970;29;1173;-64
2022/09/29 01:30:20;;;;;;;9.00;7.20;;;;;;;5.58;100.00;99211.06;678695;29;3132;-65
2022/09/29 01:30:55;;;;;;;8.80;7.00;;;;;;;5.52;100.00;99211.97;680782;29;4593;-65
2022/09/29 01:31:43;;;;;;;8.98;6.78;;;;;;;5.52;100.00;99211.13;675215;29;1638;-65
2022/09/29 01:32:37;;;;;;;8.65;7.03;;;;;;;5.47;100.00;99216.34;677648;29;1319;-63
2022/09/29 01:33:25;;;;;;;9.68;7.78;;;;;;;5.50;100.00;99218.91;686659;28;1176;-64
2022/09/29 01:34:12;;;;;;;8.95;7.13;;;;;;;5.61;100.00;99216.25;686934;28;4413;-64
2022/09/29 01:34:42;;;;;;;10.40;7.20;;;;;;;5.59;100.00;99218.84;689344;28;1187;-64
2022/09/29 01:35:13;;;;;;;10.13;7.95;;;;;;;5.56;100.00;99215.41;689760;28;1279;-69
2022/09/29 01:35:52;;;;;;;9.35;7.90;;;;;;;5.54;100.00;99217.13;689487;28;1935;-65
2022/09/29 01:36:31;;;;;;;9.30;7.32;;;;;;;5.50;100.00;99215.44;689366;28;1096;-65
2022/09/29 01:37:04;;;;;;;8.80;7.40;;;;;;;5.51;100.00;99220.63;689654;28;4428;-64
2022/09/29 01:38:03;;;;;;;10.18;7.80;;;;;;;5.57;100.00;99217.13;692226;28;1162;-65
2022/09/29 01:39:05;;;;;;;9.98;7.55;;;;;;;5.70;100.00;99213.56;691172;28;1281;-64
2022/09/29 01:39:33;;;;;;;9.23;7.22;;;;;;;5.67;100.00;99220.53;689111;28;1126;-64
2022/09/29 01:40:19;;;;;;;9.35;7.10;;;;;;;5.65;100.00;99217.94;689031;28;4460;-64
2022/09/29 01:40:46;;;;;;;10.23;6.90;;;;;;;5.67;100.00;99216.19;688610;28;1412;-64
2022/09/29 01:41:06;;;;;;;9.18;7.32;;;;;;;5.65;100.00;99219.66;689108;28;1310;-64
2022/09/29 01:41:37;;;;;;;8.95;7.30;;;;;;;5.63;100.00;99214.47;688904;28;1258;-65
2022/09/29 01:42:11;;;;;;;8.73;6.95;;;;;;;5.68;100.00;99223.09;688613;28;1157;-65
2022/09/29 01:43:08;;;;;;;8.77;6.60;;;;;;;5.72;100.00;99210.94;690278;28;1255;-65
2022/09/29 01:43:39;;;;;;;9.65;7.10;;;;;;;5.76;100.00;99210.94;683545;28;4876;-64
2022/09/29 01:44:23;;;;;;;7.97;6.75;;;;;;;5.76;100.00;99213.53;684205;28;1172;-64
2022/09/29 01:44:54;;;;;;;7.80;6.63;;;;;;;5.75;100.00;99213.53;684344;28;1204;-64
2022/09/29 01:45:25;;;;;;;8.23;6.60;;;;;;;5.74;100.00;99214.41;684832;28;1319;-65
2022/09/29 01:45:52;;;;;;;8.40;6.40;;;;;;;5.75;100.00;99206.59;686285;28;1111;-65
2022/09/29 01:46:20;;;;;;;8.07;6.53;;;;;;;5.80;100.00;99210.03;683722;28;1161;-65
2022/09/29 01:46:49;;;;;;;8.57;6.43;;;;;;;5.82;100.00;99209.16;685905;28;2841;-65
2022/09/29 01:47:20;;;;;;;8.30;6.50;;;;;;;5.74;100.00;99215.25;686398;28;1057;-65
2022/09/29 01:47:51;;;;;;;8.43;7.00;;;;;;;5.77;100.00;99212.66;687385;28;1667;-64
2022/09/29 01:48:18;;;;;;;8.60;6.70;;;;;;;5.79;100.00;99210.03;686045;28;1227;-65
2022/09/29 01:48:44;;;;;;;7.90;6.57;;;;;;;5.75;100.00;99213.53;687723;28;4410;-64
2022/09/29 01:49:07;;;;;;;8.50;6.63;;;;;;;5.76;100.00;99210.94;689968;28;1295;-65
2022/09/29 01:49:32;;;;;;;9.00;6.90;;;;;;;5.82;100.00;99211.75;688490;28;1453;-65
2022/09/29 01:49:58;;;;;;;8.15;6.55;;;;;;;5.85;100.00;99216.91;689007;28;1267;-64
2022/09/29 01:50:26;;;;;;;7.53;6.35;;;;;;;5.76;100.00;99216.13;686373;28;1257;-65
2022/09/29 01:50:52;;;;;;;7.80;6.18;;;;;;;5.75;100.00;99222.16;687011;28;1251;-64
2022/09/29 01:51:18;;;;;;;8.95;6.50;;;;;;;5.76;100.00;99216.13;685511;28;1379;-65
2022/09/29 01:51:46;;;;;;;7.55;6.45;;;;;;;5.76;100.00;99213.53;686636;28;4564;-65
2022/09/29 01:52:12;;;;;;;7.43;6.40;;;;;;;5.80;100.00;99222.13;686396;28;1271;-65
2022/09/29 01:52:40;;;;;;;8.15;6.75;;;;;;;5.77;100.00;99216.97;687000;28;1358;-64
2022/09/29 01:53:10;;;;;;;8.00;7.03;;;;;;;5.73;100.00;99213.56;687342;28;1240;-64
2022/09/29 01:53:38;;;;;;;8.05;6.70;;;;;;;5.68;100.00;99220.50;687455;28;1235;-64
2022/09/29 01:54:03;;;;;;;8.57;7.10;;;;;;;5.63;100.00;99217.06;686916;28;1180;-65
2022/09/29 01:54:38;;;;;;;8.30;6.70;;;;;;;5.67;100.00;99226.56;685973;28;2821;-65
2022/09/29 01:55:07;;;;;;;8.48;6.57;;;;;;;5.73;100.00;99216.16;686496;28;4827;-65
2022/09/29 01:55:34;;;;;;;8.82;6.68;;;;;;;5.73;100.00;99221.34;686424;28;1911;-64
2022/09/29 01:56:01;;;;;;;10.25;7.20;;;;;;;5.71;100.00;99222.22;685502;28;1231;-65
2022/09/29 01:56:52;;;;;;;8.80;6.90;;;;;;;5.76;100.00;99226.50;685846;28;1128;-65
2022/09/29 01:57:23;;;;;;;9.27;7.07;;;;;;;5.83;100.00;99221.22;685855;28;1255;-64
2022/09/29 01:57:57;;;;;;;10.15;6.80;;;;;;;5.82;100.00;99216.94;686966;28;4417;-65
2022/09/29 01:58:25;;;;;;;9.10;7.13;;;;;;;5.79;100.00;99221.28;689758;28;1140;-65
2022/09/29 01:59:00;;;;;;;8.75;7.03;;;;;;;5.73;100.00;99218.75;689071;28;1239;-65
2022/09/29 01:59:28;;;;;;;8.70;6.68;;;;;;;5.73;100.00;99226.53;688599;28;1140;-65
2022/09/29 01:59:57;;;;;;;8.45;6.90;;;;;;;5.69;100.00;99223.94;688929;28;1061;-64
2022/09/29 02:00:20;;;;;;;8.95;6.85;;;;;;;5.71;100.00;99224.81;688512;28;1294;-65
2022/09/29 02:00:48;;;;;;;8.60;6.63;;;;;;;5.67;100.00;99226.56;688391;28;4406;-64
2022/09/29 02:01:11;;;;;;;8.82;7.00;;;;;;;5.62;100.00;99217.94;688622;28;2891;-65
2022/09/29 02:01:38;;;;;;;8.75;6.68;;;;;;;5.57;100.00;99223.16;689646;28;1318;-64
2022/09/29 02:02:05;;;;;;;8.73;6.93;;;;;;;5.53;100.00;99220.63;689363;28;1356;-64
2022/09/29 02:02:33;;;;;;;8.90;6.90;;;;;;;5.57;100.00;99219.72;689057;28;1215;-64
2022/09/29 02:03:04;;;;;;;10.05;6.85;;;;;;;5.68;100.00;99228.28;688333;28;1487;-64
2022/09/29 02:03:32;;;;;;;7.93;6.70;;;;;;;5.70;100.00;99221.34;686864;28;1159;-65
2022/09/29 02:03:56;;;;;;;8.27;6.47;;;;;;;5.72;100.00;99227.38;686760;28;4308;-65
2022/09/29 02:04:26;;;;;;;8.18;6.60;;;;;;;5.65;100.00;99225.72;687041;28;1219;-65